createdAt,value
2023-05-08T00:01:15.757Z,98603.19
2023-05-08T00:03:17.122Z,98604.88
2023-05-08T00:05:18.504Z,98596.41
2023-05-08T00:07:19.804Z,98599.72
2023-05-08T00:09:21.208Z,98595.47
2023-05-08T00:11:22.546Z,98592.06
2023-05-08T00:13:24.032Z,98596.34
2023-05-08T00:15:25.390Z,98592.06
2023-05-08T00:17:26.790Z,98597.16
2023-05-08T00:19:28.147Z,98592.88
2023-05-08T00:21:29.489Z,98599.69
2023-05-08T00:23:30.837Z,98592.81
2023-05-08T00:25:32.149Z,98588.47
2023-05-08T00:27:33.458Z,98593.59
2023-05-08T00:29:34.813Z,98592.78
2023-05-08T00:31:36.155Z,98605.59
2023-05-08T00:33:37.491Z,98603.91
2023-05-08T00:35:41.099Z,98597.91
2023-05-08T00:37:43.714Z,98597.09
2023-05-08T00:39:45.064Z,98597.09
2023-05-08T00:41:46.359Z,98605.59
2023-05-08T00:43:47.690Z,98599.66
2023-05-08T00:45:49.154Z,98607.34
2023-05-08T00:47:50.674Z,98605.69
2023-05-08T00:49:52.015Z,98606.53
2023-05-08T00:51:53.320Z,98609.06
2023-05-08T00:53:54.662Z,98609.91
2023-05-08T00:55:56.009Z,98611.63
2023-05-08T00:57:57.301Z,98613.31
2023-05-08T00:59:58.600Z,98607.34
2023-05-08T01:01:59.922Z,98606.47
2023-05-08T01:04:01.291Z,98603.09
2023-05-08T01:06:02.638Z,98607.38
2023-05-08T01:08:04.026Z,98605.72
2023-05-08T01:10:05.355Z,98610.00
2023-05-08T01:12:06.668Z,98606.59
2023-05-08T01:14:07.978Z,98609.19
2023-05-08T01:16:09.316Z,98610.06
2023-05-08T01:18:10.730Z,98607.56
2023-05-08T01:20:12.358Z,98607.56
2023-05-08T01:22:13.806Z,98603.31
2023-05-08T01:24:15.110Z,98598.16
2023-05-08T01:26:16.451Z,98602.34
2023-05-08T01:28:17.764Z,98598.91
2023-05-08T01:30:19.092Z,98596.34
2023-05-08T01:32:20.895Z,98598.88
2023-05-08T01:34:22.252Z,98595.47
2023-05-08T01:36:23.558Z,98593.75
2023-05-08T01:38:24.891Z,98604.75
2023-05-08T01:40:26.231Z,98604.75
2023-05-08T01:42:27.590Z,98603.88
2023-05-08T01:44:28.936Z,98604.72
2023-05-08T01:46:30.302Z,98597.81
2023-05-08T01:48:31.914Z,98596.75
2023-05-08T01:50:33.351Z,98590.00
2023-05-08T01:52:34.664Z,98585.03
2023-05-08T01:54:36.156Z,98587.63
2023-05-08T01:56:38.270Z,98590.19
2023-05-08T01:58:39.995Z,98588.47
2023-05-08T02:00:41.483Z,98589.31
2023-05-08T02:02:43.047Z,98598.69
2023-05-08T02:04:44.444Z,98600.38
2023-05-08T02:06:45.847Z,98594.41
2023-05-08T02:08:47.196Z,98595.25
2023-05-08T02:10:49.800Z,98477.06
2023-05-08T02:12:51.209Z,98600.41
2023-05-08T02:14:53.043Z,98595.28
2023-05-08T02:16:54.369Z,98594.34
2023-05-08T02:18:55.963Z,98596.06
2023-05-08T02:20:57.395Z,98591.78
2023-05-08T02:22:58.714Z,98590.94
2023-05-08T02:25:00.010Z,98591.81
2023-05-08T02:27:02.152Z,98598.69
2023-05-08T02:29:03.670Z,98597.84
2023-05-08T02:31:04.981Z,98597.84
2023-05-08T02:33:06.334Z,98597.81
2023-05-08T02:35:07.682Z,98600.31
2023-05-08T02:37:09.014Z,98598.63
2023-05-08T02:39:10.312Z,98607.19
2023-05-08T02:41:11.675Z,98614.00
2023-05-08T02:43:12.993Z,98613.09
2023-05-08T02:45:14.368Z,98613.06
2023-05-08T02:47:15.941Z,98620.78
2023-05-08T02:49:17.244Z,98611.41
2023-05-08T02:51:18.574Z,98612.25
2023-05-08T02:53:19.868Z,98609.69
2023-05-08T02:55:21.206Z,98610.56
2023-05-08T02:57:22.574Z,98605.47
2023-05-08T02:59:23.894Z,98603.75
2023-05-08T03:01:25.501Z,98606.28
2023-05-08T03:03:27.369Z,98599.47
2023-05-08T03:05:28.947Z,98602.88
2023-05-08T03:07:30.251Z,98601.97
2023-05-08T03:09:31.551Z,98603.66
2023-05-08T03:11:32.851Z,98604.47
2023-05-08T03:13:34.243Z,98600.22
2023-05-08T03:15:35.695Z,98604.50
2023-05-08T03:17:37.150Z,98607.06
2023-05-08T03:19:38.595Z,98612.13
2023-05-08T03:21:39.894Z,98611.31
2023-05-08T03:23:41.209Z,98613.06
2023-05-08T03:25:42.533Z,98610.53
2023-05-08T03:27:43.830Z,98608.81
2023-05-08T03:29:45.541Z,98606.28
2023-05-08T03:31:46.943Z,98602.94
2023-05-08T03:33:48.349Z,98614.84
2023-05-08T03:35:49.683Z,98616.53
2023-05-08T03:37:51.482Z,98613.91
2023-05-08T03:39:52.884Z,98617.38
2023-05-08T03:41:54.223Z,98617.38
2023-05-08T03:43:55.587Z,98610.59
2023-05-08T03:45:56.889Z,98615.72
2023-05-08T03:47:58.283Z,98620.81
2023-05-08T03:49:59.707Z,98619.16
2023-05-08T03:52:01.002Z,98625.94
2023-05-08T03:54:02.343Z,98626.69
2023-05-08T03:56:03.706Z,98626.66
2023-05-08T03:58:05.101Z,98629.22
2023-05-08T04:00:06.440Z,98624.91
2023-05-08T04:02:09.265Z,98630.06
2023-05-08T04:04:10.908Z,98630.13
2023-05-08T04:06:12.331Z,98628.44
2023-05-08T04:08:13.668Z,98629.31
2023-05-08T04:10:15.196Z,98623.38
2023-05-08T04:12:16.755Z,98625.09
2023-05-08T04:14:18.092Z,98623.38
2023-05-08T04:16:19.514Z,98625.94
2023-05-08T04:18:20.989Z,98613.97
2023-05-08T04:20:22.388Z,98621.63
2023-05-08T04:22:23.755Z,98618.31
2023-05-08T04:24:25.073Z,98621.75
2023-05-08T04:26:26.436Z,98629.44
2023-05-08T04:28:27.744Z,98632.00
2023-05-08T04:30:29.043Z,98630.28
2023-05-08T04:32:30.414Z,98635.34
2023-05-08T04:34:31.848Z,98633.59
2023-05-08T04:36:33.969Z,98642.06
2023-05-08T04:38:35.305Z,98641.22
2023-05-08T04:40:36.632Z,98648.00
2023-05-08T04:42:39.555Z,98650.56
2023-05-08T04:44:40.955Z,98650.50
2023-05-08T04:46:42.363Z,98652.19
2023-05-08T04:48:43.771Z,98659.81
2023-05-08T04:50:45.106Z,98665.75
2023-05-08T04:52:46.437Z,98665.69
2023-05-08T04:54:47.766Z,98672.41
2023-05-08T04:56:49.115Z,98672.41
2023-05-08T04:58:51.294Z,98674.94
2023-05-08T05:00:52.616Z,98673.16
2023-05-08T05:02:53.985Z,98677.41
2023-05-08T05:04:58.687Z,98674.91
2023-05-08T05:07:00.186Z,98675.75
2023-05-08T05:09:02.735Z,98677.41
2023-05-08T05:11:04.030Z,98677.41
2023-05-08T05:13:05.433Z,98676.53
2023-05-08T05:15:06.830Z,98685.06
2023-05-08T05:17:08.353Z,98686.75
2023-05-08T05:19:09.875Z,98687.59
2023-05-08T05:21:11.530Z,98690.22
2023-05-08T05:23:12.864Z,98686.03
2023-05-08T05:25:14.337Z,98684.41
2023-05-08T05:27:15.869Z,98687.03
2023-05-08T05:29:17.186Z,98687.03
2023-05-08T05:31:18.563Z,98695.53
2023-05-08T05:33:20.098Z,98685.31
2023-05-08T05:35:22.128Z,98694.69
2023-05-08T05:37:24.360Z,98689.56
2023-05-08T05:39:25.731Z,98693.03
2023-05-08T05:41:27.077Z,98696.47
2023-05-08T05:43:28.395Z,98695.72
2023-05-08T05:45:31.871Z,98694.03
2023-05-08T05:47:34.564Z,98694.84
2023-05-08T05:49:36.040Z,98699.94
2023-05-08T05:51:37.449Z,98704.16
2023-05-08T05:53:38.777Z,98705.78
2023-05-08T05:55:40.075Z,98703.22
2023-05-08T05:57:41.463Z,98703.22
2023-05-08T05:59:43.535Z,98698.03
2023-05-08T06:01:44.890Z,98703.09
2023-05-08T06:03:46.451Z,98710.72
2023-05-08T06:05:48.000Z,98708.97
2023-05-08T06:07:49.370Z,98713.16
2023-05-08T06:09:51.289Z,98715.69
2023-05-08T06:11:52.623Z,98713.09
2023-05-08T06:13:53.958Z,98711.41
2023-05-08T06:15:56.546Z,98713.97
2023-05-08T06:17:58.260Z,98723.31
2023-05-08T06:19:59.628Z,98714.78
2023-05-08T06:22:01.139Z,98718.19
2023-05-08T06:24:02.508Z,98719.00
2023-05-08T06:26:03.915Z,98713.84
2023-05-08T06:28:06.706Z,98717.16
2023-05-08T06:30:08.577Z,98707.78
2023-05-08T06:32:09.922Z,98712.91
2023-05-08T06:34:11.263Z,98713.59
2023-05-08T06:36:12.571Z,98711.00
2023-05-08T06:38:14.159Z,98715.53
2023-05-08T06:40:15.526Z,98710.56
2023-05-08T06:42:16.867Z,98725.06
2023-05-08T06:44:18.275Z,98717.56
2023-05-08T06:46:19.701Z,98719.41
2023-05-08T06:48:21.067Z,98714.38
2023-05-08T06:50:22.427Z,98712.75
2023-05-08T06:52:25.583Z,98723.03
2023-05-08T06:54:26.964Z,98721.38
2023-05-08T06:56:28.261Z,98718.00
2023-05-08T06:58:31.566Z,98716.28
2023-05-08T07:00:32.923Z,98721.44
2023-05-08T07:02:34.300Z,98712.06
2023-05-08T07:04:35.726Z,98721.44
2023-05-08T07:06:37.104Z,98717.19
2023-05-08T07:08:38.406Z,98718.84
2023-05-08T07:10:40.126Z,98710.28
2023-05-08T07:12:41.577Z,98709.47
2023-05-08T07:14:43.324Z,98711.16
2023-05-08T07:16:44.758Z,98707.69
2023-05-08T07:18:46.059Z,98586.88
2023-05-08T07:20:47.418Z,98718.59
2023-05-08T07:22:48.772Z,98716.91
2023-05-08T07:24:50.217Z,98712.56
2023-05-08T07:26:51.649Z,98715.88
2023-05-08T07:28:54.303Z,98718.41
2023-05-08T07:30:55.916Z,98723.47
2023-05-08T07:32:57.378Z,98727.75
2023-05-08T07:34:58.956Z,98720.03
2023-05-08T07:37:00.425Z,98730.25
2023-05-08T07:39:01.741Z,98731.03
2023-05-08T07:41:05.093Z,98725.88
2023-05-08T07:43:06.475Z,98727.53
2023-05-08T07:45:07.870Z,98725.78
2023-05-08T07:47:09.427Z,98729.19
2023-05-08T07:49:11.047Z,98722.38
2023-05-08T07:51:12.394Z,98720.66
2023-05-08T07:53:13.727Z,98721.94
2023-05-08T07:55:15.214Z,98724.22
2023-05-08T07:57:16.731Z,98728.50
2023-05-08T07:59:18.520Z,98727.47
2023-05-08T08:01:19.896Z,98725.13
2023-05-08T08:03:21.292Z,98725.78
2023-05-08T08:05:22.843Z,98721.63
2023-05-08T08:07:24.181Z,98720.69
2023-05-08T08:09:25.781Z,98721.66
2023-05-08T08:11:27.455Z,98720.59
2023-05-08T08:13:29.030Z,98711.53
2023-05-08T08:15:30.484Z,98724.22
2023-05-08T08:17:31.926Z,98720.69
2023-05-08T08:19:33.305Z,98716.19
2023-05-08T08:21:34.765Z,98716.50
2023-05-08T08:23:36.143Z,98715.38
2023-05-08T08:25:37.455Z,98716.72
2023-05-08T08:27:39.149Z,98711.97
2023-05-08T08:29:40.547Z,98712.41
2023-05-08T08:31:41.917Z,98714.22
2023-05-08T08:33:43.338Z,98717.38
2023-05-08T08:35:44.715Z,98722.63
2023-05-08T08:37:46.049Z,98717.75
2023-05-08T08:39:48.471Z,98719.84
2023-05-08T08:41:49.855Z,98720.06
2023-05-08T08:43:51.238Z,98720.56
2023-05-08T08:45:52.789Z,98714.56
2023-05-08T08:47:54.201Z,98729.44
2023-05-08T08:49:55.566Z,98714.72
2023-05-08T08:51:57.399Z,98713.78
2023-05-08T08:53:58.736Z,98711.22
2023-05-08T08:56:00.055Z,98712.97
2023-05-08T08:58:01.383Z,98715.47
2023-05-08T09:00:04.496Z,98717.31
2023-05-08T09:02:05.902Z,98720.38
2023-05-08T09:04:07.400Z,98721.22
2023-05-08T09:06:08.835Z,98712.09
2023-05-08T09:08:10.224Z,98708.56
2023-05-08T09:10:15.474Z,98711.03
2023-05-08T09:12:16.834Z,98705.59
2023-05-08T09:14:18.136Z,98706.94
2023-05-08T09:16:19.492Z,98706.34
2023-05-08T09:18:20.811Z,98712.50
2023-05-08T09:20:22.155Z,98712.56
2023-05-08T09:22:24.401Z,98708.94
2023-05-08T09:24:29.513Z,98710.28
2023-05-08T09:26:32.616Z,98709.66
2023-05-08T09:28:33.973Z,98723.44
2023-05-08T09:30:35.283Z,98711.59
2023-05-08T09:32:36.745Z,98705.69
2023-05-08T09:34:38.091Z,98714.41
2023-05-08T09:36:42.242Z,98712.19
2023-05-08T09:38:44.206Z,98705.84
2023-05-08T09:40:45.599Z,98705.94
2023-05-08T09:42:46.974Z,98701.75
2023-05-08T09:44:48.465Z,98708.63
2023-05-08T09:46:50.608Z,98695.34
2023-05-08T09:48:51.992Z,98696.38
2023-05-08T09:50:53.296Z,98692.34
2023-05-08T09:52:54.662Z,98696.19
2023-05-08T09:54:56.006Z,98699.88
2023-05-08T09:56:57.380Z,98690.94
2023-05-08T09:58:58.693Z,98699.81
2023-05-08T10:01:00.579Z,98693.66
2023-05-08T10:03:02.382Z,98705.91
2023-05-08T10:05:05.717Z,98704.03
2023-05-08T10:07:07.178Z,98699.22
2023-05-08T10:09:08.588Z,98693.31
2023-05-08T10:11:09.896Z,98699.69
2023-05-08T10:13:11.232Z,98696.50
2023-05-08T10:15:12.582Z,98697.53
2023-05-08T10:17:14.035Z,98690.81
2023-05-08T10:19:15.521Z,98699.41
2023-05-08T10:21:16.827Z,98699.47
2023-05-08T10:23:19.375Z,98695.25
2023-05-08T10:25:20.822Z,98694.44
2023-05-08T10:27:24.526Z,98699.53
2023-05-08T10:29:26.004Z,98690.16
2023-05-08T10:31:27.414Z,98693.22
2023-05-08T10:33:29.609Z,98689.63
2023-05-08T10:35:32.442Z,98681.03
2023-05-08T10:37:33.767Z,98667.34
2023-05-08T10:39:35.081Z,98679.28
2023-05-08T10:41:36.392Z,98681.84
2023-05-08T10:43:37.712Z,98683.56
2023-05-08T10:45:39.030Z,98678.47
2023-05-08T10:47:40.450Z,98681.03
2023-05-08T10:49:41.814Z,98679.34
2023-05-08T10:51:43.176Z,98675.94
2023-05-08T10:53:44.469Z,98676.78
2023-05-08T10:55:45.798Z,98675.13
2023-05-08T10:57:47.100Z,98679.44
2023-05-08T10:59:48.399Z,98670.91
2023-05-08T11:01:50.101Z,98670.09
2023-05-08T11:03:51.717Z,98672.66
2023-05-08T11:05:53.217Z,98663.22
2023-05-08T11:07:54.563Z,98667.47
2023-05-08T11:09:55.866Z,98672.53
2023-05-08T11:11:57.161Z,98667.41
2023-05-08T11:13:58.451Z,98666.50
2023-05-08T11:15:59.800Z,98663.88
2023-05-08T11:18:01.163Z,98663.03
2023-05-08T11:20:03.269Z,98651.03
2023-05-08T11:22:04.580Z,98662.66
2023-05-08T11:24:05.886Z,98663.19
2023-05-08T11:26:07.289Z,98654.97
2023-05-08T11:28:08.592Z,98654.41
2023-05-08T11:30:12.875Z,98663.22
2023-05-08T11:32:14.460Z,98666.81
2023-05-08T11:34:15.756Z,98658.44
2023-05-08T11:36:17.156Z,98524.22
2023-05-08T11:38:18.621Z,98662.69
2023-05-08T11:40:19.950Z,98654.22
2023-05-08T11:42:21.288Z,98658.47
2023-05-08T11:44:22.589Z,98662.78
2023-05-08T11:46:23.959Z,98661.97
2023-05-08T11:48:25.316Z,98658.59
2023-05-08T11:50:26.637Z,98654.31
2023-05-08T11:52:27.991Z,98657.66
2023-05-08T11:54:29.393Z,98654.25
2023-05-08T11:56:30.696Z,98657.66
2023-05-08T11:58:32.093Z,98654.25
2023-05-08T12:00:33.431Z,98649.13
2023-05-08T12:02:34.830Z,98653.38
2023-05-08T12:04:38.881Z,98650.81
2023-05-08T12:06:40.228Z,98653.31
2023-05-08T12:08:41.540Z,98645.59
2023-05-08T12:10:43.989Z,98642.19
2023-05-08T12:12:47.019Z,98655.72
2023-05-08T12:14:48.365Z,98633.47
2023-05-08T12:16:49.894Z,98641.09
2023-05-08T12:18:51.674Z,98645.25
2023-05-08T12:20:53.273Z,98642.66
2023-05-08T12:22:54.683Z,98632.38
2023-05-08T12:24:56.002Z,98639.19
2023-05-08T12:26:57.411Z,98632.38
2023-05-08T12:28:58.739Z,98645.19
2023-05-08T12:31:00.061Z,98640.94
2023-05-08T12:33:02.250Z,98639.22
2023-05-08T12:35:03.592Z,98645.25
2023-05-08T12:37:04.939Z,98629.09
2023-05-08T12:39:06.324Z,98626.53
2023-05-08T12:41:10.041Z,98635.97
2023-05-08T12:43:11.445Z,98634.25
2023-05-08T12:45:12.761Z,98629.19
2023-05-08T12:47:14.062Z,98634.34
2023-05-08T12:49:15.372Z,98632.69
2023-05-08T12:51:16.672Z,98633.53
2023-05-08T12:53:18.004Z,98634.44
2023-05-08T12:55:19.305Z,98632.78
2023-05-08T12:57:22.692Z,98634.50
2023-05-08T12:59:24.069Z,98632.78
2023-05-08T13:01:25.435Z,98627.72
2023-05-08T13:03:26.905Z,98627.72
2023-05-08T13:05:31.244Z,98627.78
2023-05-08T13:07:32.689Z,98626.13
2023-05-08T13:09:33.998Z,98632.13
2023-05-08T13:11:35.521Z,98629.56
2023-05-08T13:13:36.887Z,98628.81
2023-05-08T13:15:38.269Z,98622.84
2023-05-08T13:17:39.704Z,98619.44
2023-05-08T13:19:41.045Z,98617.78
2023-05-08T13:21:44.599Z,98625.44
2023-05-08T13:23:46.065Z,98606.72
2023-05-08T13:25:48.791Z,98617.88
2023-05-08T13:27:50.116Z,98625.56
2023-05-08T13:29:51.455Z,98615.34
2023-05-08T13:31:52.914Z,98610.28
2023-05-08T13:33:54.501Z,98473.53
2023-05-08T13:35:56.231Z,98612.84
2023-05-08T13:37:57.556Z,98547.88
2023-05-08T13:39:58.865Z,98610.34
2023-05-08T13:42:00.184Z,98609.47
2023-05-08T13:44:02.225Z,98608.63
2023-05-08T13:46:04.818Z,98618.81
2023-05-08T13:48:08.160Z,98615.41
2023-05-08T13:50:09.992Z,98613.69
2023-05-08T13:52:11.332Z,98611.16
2023-05-08T13:54:12.631Z,98603.47
2023-05-08T13:56:13.942Z,98593.28
2023-05-08T13:58:15.289Z,98603.59
2023-05-08T14:00:16.782Z,98606.16
2023-05-08T14:02:18.244Z,98598.50
2023-05-08T14:04:19.707Z,98606.19
2023-05-08T14:06:21.228Z,98598.56
2023-05-08T14:08:22.579Z,98601.13
2023-05-08T14:10:23.937Z,98601.13
2023-05-08T14:12:25.474Z,98600.31
2023-05-08T14:14:26.865Z,98590.13
2023-05-08T14:16:28.280Z,98591.84
2023-05-08T14:18:35.741Z,98597.00
2023-05-08T14:20:37.058Z,98588.50
2023-05-08T14:22:38.473Z,98598.75
2023-05-08T14:24:40.008Z,98594.50
2023-05-08T14:26:45.024Z,98594.53
2023-05-08T14:28:46.464Z,98597.97
2023-05-08T14:30:47.772Z,98598.03
2023-05-08T14:32:49.178Z,98601.44
2023-05-08T14:34:50.546Z,98598.06
2023-05-08T14:36:54.788Z,98599.81
2023-05-08T14:38:56.146Z,98600.69
2023-05-08T14:40:57.454Z,98598.16
2023-05-08T14:42:58.876Z,98598.19
2023-05-08T14:45:00.454Z,98596.53
2023-05-08T14:47:02.190Z,98609.31
2023-05-08T14:49:03.498Z,98596.56
2023-05-08T14:51:04.862Z,98593.16
2023-05-08T14:53:06.335Z,98595.78
2023-05-08T14:55:07.971Z,98588.97
2023-05-08T14:57:09.652Z,98595.78
2023-05-08T14:59:10.962Z,98594.13
2023-05-08T15:01:12.259Z,98590.75
2023-05-08T15:03:13.709Z,98585.72
2023-05-08T15:05:19.907Z,98586.56
2023-05-08T15:07:21.775Z,98578.94
2023-05-08T15:09:23.147Z,98585.75
2023-05-08T15:11:24.490Z,98586.66
2023-05-08T15:13:25.933Z,98589.25
2023-05-08T15:15:27.312Z,98587.53
2023-05-08T15:17:28.670Z,98580.75
2023-05-08T15:19:30.003Z,98583.34
2023-05-08T15:21:31.366Z,98582.47
2023-05-08T15:23:32.807Z,98581.66
2023-05-08T15:25:34.111Z,98590.22
2023-05-08T15:27:35.525Z,98585.13
2023-05-08T15:29:36.820Z,98591.94
2023-05-08T15:31:38.206Z,98584.31
2023-05-08T15:33:44.606Z,98589.47
2023-05-08T15:35:46.005Z,98593.72
2023-05-08T15:37:47.351Z,98579.28
2023-05-08T15:39:50.185Z,98575.91
2023-05-08T15:41:51.480Z,98591.25
2023-05-08T15:43:52.818Z,98588.75
2023-05-08T15:45:54.124Z,98585.34
2023-05-08T15:47:55.579Z,98587.94
2023-05-08T15:49:56.891Z,98586.22
2023-05-08T15:51:58.215Z,98587.97
2023-05-08T15:53:59.569Z,98584.59
2023-05-08T15:56:00.944Z,98581.22
2023-05-08T15:58:02.258Z,98577.81
2023-05-08T16:00:03.575Z,98580.41
2023-05-08T16:02:04.926Z,98575.34
2023-05-08T16:04:06.268Z,98568.53
2023-05-08T16:06:07.595Z,98567.75
2023-05-08T16:08:12.287Z,98562.63
2023-05-08T16:10:13.681Z,98567.78
2023-05-08T16:12:15.064Z,98560.16
2023-05-08T16:14:20.094Z,98555.13
2023-05-08T16:16:21.471Z,98556.00
2023-05-08T16:18:23.101Z,98553.44
2023-05-08T16:20:24.502Z,98553.47
2023-05-08T16:22:25.812Z,98556.91
2023-05-08T16:24:27.149Z,98541.59
2023-05-08T16:26:28.497Z,98548.44
2023-05-08T16:28:29.889Z,98557.78
2023-05-08T16:30:31.453Z,98553.56
2023-05-08T16:32:32.854Z,98559.56
2023-05-08T16:34:35.301Z,98563.88
2023-05-08T16:36:36.617Z,98555.38
2023-05-08T16:38:37.963Z,98555.38
2023-05-08T16:40:39.419Z,98564.72
2023-05-08T16:42:40.861Z,98559.69
2023-05-08T16:44:42.363Z,98565.63
2023-05-08T16:46:43.792Z,98561.38
2023-05-08T16:48:45.464Z,98559.69
2023-05-08T16:50:46.811Z,98557.16
2023-05-08T16:52:48.546Z,98560.53
2023-05-08T16:54:50.026Z,98560.53
2023-05-08T16:56:51.562Z,98557.19
2023-05-08T16:58:53.432Z,98559.72
2023-05-08T17:00:57.777Z,98561.44
2023-05-08T17:02:59.329Z,98564.00
2023-05-08T17:05:00.697Z,98557.22
2023-05-08T17:07:04.991Z,98557.25
2023-05-08T17:09:06.368Z,98564.91
2023-05-08T17:11:07.721Z,98567.47
2023-05-08T17:13:09.122Z,98562.38
2023-05-08T17:15:10.596Z,98562.38
2023-05-08T17:17:12.274Z,98564.09
2023-05-08T17:19:19.436Z,98573.47
2023-05-08T17:21:20.784Z,98579.44
2023-05-08T17:23:22.149Z,98575.19
2023-05-08T17:25:23.504Z,98571.78
2023-05-08T17:27:27.508Z,98570.97
2023-05-08T17:29:29.056Z,98569.25
2023-05-08T17:31:30.432Z,98572.69
2023-05-08T17:33:31.790Z,98571.00
2023-05-08T17:35:34.242Z,98565.91
2023-05-08T17:37:35.563Z,98563.38
2023-05-08T17:39:36.856Z,98567.63
2023-05-08T17:41:38.196Z,98571.03
2023-05-08T17:43:39.801Z,98576.13
2023-05-08T17:45:41.233Z,98584.66
2023-05-08T17:47:42.608Z,98578.72
2023-05-08T17:49:44.028Z,98579.59
2023-05-08T17:51:45.810Z,98583.84
2023-05-08T17:53:47.171Z,98571.13
2023-05-08T17:55:48.553Z,98574.50
2023-05-08T17:57:49.875Z,98579.63
2023-05-08T17:59:51.261Z,98584.72
2023-05-08T18:01:52.658Z,98576.25
2023-05-08T18:03:54.057Z,98588.16
2023-05-08T18:05:55.454Z,98583.06
2023-05-08T18:07:56.857Z,98582.22
2023-05-08T18:09:58.270Z,98584.78
2023-05-08T18:12:02.452Z,98591.59
2023-05-08T18:14:06.841Z,98582.25
2023-05-08T18:16:08.249Z,98580.56
2023-05-08T18:18:09.760Z,98588.22
2023-05-08T18:20:17.294Z,98594.19
2023-05-08T18:22:18.621Z,98586.53
2023-05-08T18:24:20.134Z,98593.31
2023-05-08T18:26:24.520Z,98591.59
2023-05-08T18:28:28.851Z,98591.59
2023-05-08T18:30:31.450Z,98596.63
2023-05-08T18:32:32.836Z,98589.75
2023-05-08T18:34:37.105Z,98592.19
2023-05-08T18:36:38.471Z,98581.06
2023-05-08T18:38:41.636Z,98582.72
2023-05-08T18:41:00.999Z,98589.44
2023-05-08T18:43:02.327Z,98591.94
2023-05-08T18:45:05.715Z,98593.56
2023-05-08T18:47:07.195Z,98594.38
2023-05-08T18:49:08.536Z,98595.22
2023-05-08T18:51:09.972Z,98590.13
2023-05-08T18:53:12.417Z,98591.81
2023-05-08T18:55:13.765Z,98594.44
2023-05-08T18:57:15.169Z,98594.44
2023-05-08T18:59:16.542Z,98599.50
2023-05-08T19:01:20.125Z,98596.91
2023-05-08T19:03:21.678Z,98602.00
2023-05-08T19:05:23.057Z,98599.44
2023-05-08T19:07:24.412Z,98604.53
2023-05-08T19:09:25.781Z,98611.28
2023-05-08T19:11:27.153Z,98613.00
2023-05-08T19:13:28.619Z,98614.66
2023-05-08T19:15:30.186Z,98615.47
2023-05-08T19:17:31.638Z,98613.72
2023-05-08T19:19:36.343Z,98612.06
2023-05-08T19:21:37.894Z,98623.13
2023-05-08T19:23:39.266Z,98620.53
2023-05-08T19:25:40.737Z,98619.69
2023-05-08T19:27:42.070Z,98629.94
2023-05-08T19:29:43.411Z,98622.25
2023-05-08T19:31:44.783Z,98627.41
2023-05-08T19:33:47.373Z,98612.13
2023-05-08T19:35:48.763Z,98618.94
2023-05-08T19:37:55.972Z,98618.06
2023-05-08T19:39:58.187Z,98626.56
2023-05-08T19:42:02.728Z,98618.88
2023-05-08T19:44:04.098Z,98623.97
2023-05-08T19:46:05.578Z,98623.94
2023-05-08T19:48:13.200Z,98617.13
2023-05-08T19:50:19.050Z,98611.13
2023-05-08T19:52:20.414Z,98617.94
2023-05-08T19:54:21.730Z,98617.06
2023-05-08T19:56:23.102Z,98611.97
2023-05-08T19:58:24.471Z,98612.81
2023-05-08T20:00:25.971Z,98618.81
2023-05-08T20:02:27.346Z,98618.84
2023-05-08T20:04:28.768Z,98608.66
2023-05-08T20:06:30.496Z,98611.19
2023-05-08T20:08:31.822Z,98611.25
2023-05-08T20:10:36.286Z,98619.81
2023-05-08T20:12:37.820Z,98615.56
2023-05-08T20:14:39.132Z,98613.03
2023-05-08T20:16:41.833Z,98610.44
2023-05-08T20:18:46.299Z,98618.06
2023-05-08T20:20:47.697Z,98620.59
2023-05-08T20:22:54.944Z,98617.16
2023-05-08T20:24:56.269Z,98616.28
2023-05-08T20:27:00.423Z,98612.91
2023-05-08T20:29:01.800Z,98609.50
2023-05-08T20:31:03.212Z,98613.75
2023-05-08T20:33:05.171Z,98615.50
2023-05-08T20:35:06.758Z,98610.41
2023-05-08T20:37:08.126Z,98612.13
2023-05-08T20:39:09.488Z,98615.50
2023-05-08T20:41:10.959Z,98611.19
2023-05-08T20:43:12.501Z,98606.97
2023-05-08T20:45:13.851Z,98608.72
2023-05-08T20:47:15.249Z,98605.34
2023-05-08T20:49:17.217Z,98609.63
2023-05-08T20:51:18.602Z,98613.09
2023-05-08T20:53:19.922Z,98603.75
2023-05-08T20:55:21.310Z,98618.25
2023-05-08T20:57:22.715Z,98609.75
2023-05-08T20:59:24.076Z,98609.78
2023-05-08T21:01:25.460Z,98611.47
2023-05-08T21:03:26.956Z,98609.75
2023-05-08T21:05:28.363Z,98613.97
2023-05-08T21:07:29.709Z,98607.94
2023-05-08T21:09:31.056Z,98607.06
2023-05-08T21:11:32.431Z,98609.59
2023-05-08T21:13:33.756Z,98613.81
2023-05-08T21:15:35.219Z,98600.19
2023-05-08T21:17:36.595Z,98604.28
2023-05-08T21:19:38.148Z,98612.66
2023-05-08T21:21:39.493Z,98612.44
2023-05-08T21:23:40.915Z,98603.50
2023-05-08T21:25:42.225Z,98612.44
2023-05-08T21:27:43.578Z,98605.78
2023-05-08T21:29:44.913Z,98597.88
2023-05-08T21:31:46.337Z,98606.97
2023-05-08T21:33:47.859Z,98600.56
2023-05-08T21:35:49.240Z,98590.84
2023-05-08T21:37:51.587Z,98595.56
2023-05-08T21:39:54.578Z,98595.75
2023-05-08T21:41:55.987Z,98594.94
2023-05-08T21:43:57.451Z,98592.28
2023-05-08T21:45:58.884Z,98587.16
2023-05-08T21:48:00.545Z,98595.69
2023-05-08T21:50:02.178Z,98597.31
2023-05-08T21:52:03.517Z,98592.94
2023-05-08T21:54:04.837Z,98590.53
2023-05-08T21:56:06.192Z,98590.84
2023-05-08T21:58:07.530Z,98585.78
2023-05-08T22:00:09.289Z,98582.38
2023-05-08T22:02:10.775Z,98582.94
2023-05-08T22:04:12.176Z,98588.91
2023-05-08T22:06:13.520Z,98580.34
2023-05-08T22:08:14.856Z,98588.13
2023-05-08T22:10:16.309Z,98583.22
2023-05-08T22:12:23.421Z,98579.41
2023-05-08T22:14:24.736Z,98581.69
2023-05-08T22:16:26.103Z,98575.94
2023-05-08T22:18:27.579Z,98583.72
2023-05-08T22:20:28.922Z,98468.16
2023-05-08T22:22:30.829Z,98582.09
2023-05-08T22:24:32.152Z,98579.50
2023-05-08T22:26:33.466Z,98576.03
2023-05-08T22:28:34.870Z,98578.59
2023-05-08T22:30:36.362Z,98566.59
2023-05-08T22:32:37.791Z,98568.91
2023-05-08T22:34:39.160Z,98568.66
2023-05-08T22:36:40.570Z,98569.53
2023-05-08T22:38:41.922Z,98571.16
2023-05-08T22:40:43.366Z,98571.81
2023-05-08T22:42:44.733Z,98570.22
2023-05-08T22:44:46.039Z,98566.22
2023-05-08T22:46:47.493Z,98567.16
2023-05-08T22:48:48.911Z,98568.94
2023-05-08T22:50:50.612Z,98565.25
2023-05-08T22:52:51.959Z,98569.03
2023-05-08T22:54:53.268Z,98562.84
2023-05-08T22:56:54.608Z,98568.63
2023-05-08T22:58:56.012Z,98565.09
2023-05-08T23:00:57.484Z,98559.84
2023-05-08T23:02:59.156Z,98562.22
2023-05-08T23:05:00.546Z,98561.13
2023-05-08T23:07:02.184Z,98568.41
2023-05-08T23:09:04.425Z,98568.50
2023-05-08T23:11:05.864Z,98560.81
2023-05-08T23:13:07.265Z,98564.25
2023-05-08T23:15:08.662Z,98562.47
2023-05-08T23:17:13.889Z,98555.25
2023-05-08T23:19:15.368Z,98553.00
2023-05-08T23:21:16.772Z,98554.50
2023-05-08T23:23:18.112Z,98555.81
2023-05-08T23:25:19.536Z,98557.16
2023-05-08T23:27:20.924Z,98555.34
2023-05-08T23:29:22.288Z,98553.63
2023-05-08T23:31:23.704Z,98550.13
2023-05-08T23:33:25.068Z,98553.47
2023-05-08T23:35:26.478Z,98553.41
2023-05-08T23:37:27.853Z,98550.78
2023-05-08T23:39:29.220Z,98546.09
2023-05-08T23:41:30.594Z,98551.31
2023-05-08T23:43:32.180Z,98536.69
2023-05-08T23:45:33.580Z,98541.97
2023-05-08T23:47:34.986Z,98536.16
2023-05-08T23:49:36.376Z,98538.06